Time;durP1;ratioP1;P1;durP2;ratioP2;P2;SDS_P1;SDS_P2;PMS_P1;PMS_P2;Temp;Humidity;BMP_temperature;BMP_pressure;BME280_temperature;BME280_humidity;BME280_pressure;Samples;Min_cycle;Max_cycle;Signal;HPM_P1;HPM_P2
2023/04/02 00:00:36;;;;;;;3.90;1.17;;;;;;;11.65;100.00;100416.06;2072681;28;20420;-64
2023/04/02 00:01:39;;;;;;;3.77;1.20;;;;;;;11.64;100.00;100402.63;2087892;28;20438;-64
2023/04/02 00:02:58;;;;;;;2.77;1.37;;;;;;;11.67;100.00;100412.81;2081964;28;20945;-64
2023/04/02 00:03:59;;;;;;;3.10;1.40;;;;;;;11.67;100.00;100410.03;2080728;28;20426;-64
2023/04/02 00:05:18;;;;;;;1.67;1.20;;;;;;;11.64;100.00;100411.72;2080381;28;20541;-64
2023/04/02 00:06:24;;;;;;;3.07;1.47;;;;;;;11.57;100.00;100408.34;2080956;28;20172;-64
2023/04/02 00:07:32;;;;;;;2.27;1.40;;;;;;;11.54;100.00;100410.00;2072242;28;20475;-64
2023/04/02 00:08:39;;;;;;;1.93;1.10;;;;;;;11.56;100.00;100412.34;2080222;28;20442;-64
2023/04/02 00:09:41;;;;;;;2.40;1.33;;;;;;;10.99;100.00;100334.88;2080671;28;20447;-64
2023/04/02 00:10:50;;;;;;;1.97;1.40;;;;;;;11.53;100.00;100408.47;2087270;28;20442;-64
2023/04/02 00:11:54;;;;;;;1.67;1.10;;;;;;;11.56;100.00;100423.44;2082354;28;20443;-64
2023/04/02 00:13:36;;;;;;;4.03;1.70;;;;;;;11.51;100.00;100422.03;2080688;28;20431;-64
2023/04/02 00:14:37;;;;;;;3.37;1.50;;;;;;;11.53;100.00;100424.34;2072685;28;20471;-64
2023/04/02 00:15:39;;;;;;;4.27;1.47;;;;;;;11.50;100.00;100423.25;2080340;28;20490;-64
2023/04/02 00:16:40;;;;;;;1.67;1.07;;;;;;;11.47;100.00;100420.59;2072479;28;20189;-64
2023/04/02 00:17:40;;;;;;;2.70;1.20;;;;;;;11.45;100.00;100420.22;2079428;28;20436;-64
2023/04/02 00:18:54;;;;;;;2.83;1.30;;;;;;;11.40;100.00;100420.78;2080635;28;20199;-63
2023/04/02 00:20:05;;;;;;;2.63;1.50;;;;;;;11.43;100.00;100420.66;2080763;28;20186;-64
2023/04/02 00:21:20;;;;;;;2.30;1.30;;;;;;;11.46;100.00;100421.78;2080550;28;20436;-64
2023/04/02 00:22:26;;;;;;;3.30;1.50;;;;;;;11.44;100.00;100427.00;2082279;28;20462;-64
2023/04/02 00:23:27;;;;;;;1.90;1.10;;;;;;;10.52;100.00;100279.25;2080845;28;20518;-64
2023/04/02 00:24:27;;;;;;;2.57;1.30;;;;;;;11.49;100.00;100420.91;2080576;28;20427;-64
2023/04/02 00:25:33;;;;;;;3.07;1.60;;;;;;;11.40;100.00;100404.94;2080314;28;20339;-64
2023/04/02 00:26:38;;;;;;;5.07;1.27;;;;;;;11.20;100.00;100373.03;2080457;28;20185;-64
2023/04/02 00:27:40;;;;;;;2.27;1.30;;;;;;;11.46;100.00;100417.03;2080040;28;20482;-64
2023/04/02 00:28:40;;;;;;;2.47;1.30;;;;;;;11.48;100.00;100414.56;2088113;28;20962;-63
2023/04/02 00:29:46;;;;;;;2.03;1.20;;;;;;;10.94;100.00;100324.31;2088239;28;20841;-64
2023/04/02 00:30:55;;;;;;;1.63;1.20;;;;;;;11.42;100.00;100410.03;2080701;28;20181;-63
2023/04/02 00:31:58;;;;;;;1.87;1.20;;;;;;;11.16;100.00;100375.94;2082251;28;20781;-64
2023/04/02 00:33:00;;;;;;;2.47;1.30;;;;;;;11.36;100.00;100406.22;2087593;28;20518;-63
2023/04/02 00:34:03;;;;;;;3.37;1.40;;;;;;;11.39;100.00;100403.38;2080797;28;20408;-64
2023/04/02 00:35:16;;;;;;;2.10;1.50;;;;;;;11.33;100.00;100399.56;2072184;28;20471;-64
2023/04/02 00:36:21;;;;;;;3.87;1.40;;;;;;;10.78;100.00;100327.19;2072340;28;20896;-64
2023/04/02 00:37:38;;;;;;;1.80;1.00;;;;;;;11.22;100.00;100401.13;2072181;28;20899;-64
2023/04/02 00:38:42;;;;;;;3.40;1.57;;;;;;;11.11;100.00;100390.34;2072580;28;20850;-63
2023/04/02 00:39:43;;;;;;;2.37;1.00;;;;;;;10.97;100.00;100362.25;2080623;28;20917;-64
2023/04/02 00:40:45;;;;;;;1.80;1.00;;;;;;;10.93;100.00;100350.50;2080343;28;20900;-63
2023/04/02 00:41:46;;;;;;;2.57;1.20;;;;;;;11.13;100.00;100378.81;2080590;28;20197;-64
2023/04/02 00:42:48;;;;;;;2.33;1.33;;;;;;;11.20;100.00;100407.13;2087795;28;20464;-64
2023/04/02 00:43:49;;;;;;;3.40;1.20;;;;;;;11.17;100.00;100401.69;2088001;28;20611;-64
2023/04/02 00:44:53;;;;;;;2.23;1.10;;;;;;;11.19;100.00;100404.78;2080162;28;20522;-64
2023/04/02 00:45:56;;;;;;;2.47;1.17;;;;;;;11.19;100.00;100397.25;2080106;28;20959;-64
2023/04/02 00:47:03;;;;;;;2.07;1.00;;;;;;;11.15;100.00;100404.88;2080247;28;20502;-63
2023/04/02 00:48:24;;;;;;;3.57;1.30;;;;;;;11.09;100.00;100403.88;2080393;28;20407;-63
2023/04/02 00:49:37;;;;;;;2.17;1.17;;;;;;;10.86;100.00;100386.75;2080536;28;20451;-64
2023/04/02 00:50:41;;;;;;;3.27;0.93;;;;;;;11.03;100.00;100410.41;2080365;28;20510;-64
2023/04/02 00:51:48;;;;;;;1.97;1.10;;;;;;;11.10;100.00;100401.88;2080372;28;20470;-64
2023/04/02 00:52:52;;;;;;;2.30;1.10;;;;;;;11.05;100.00;100407.97;2080344;28;20434;-63
2023/04/02 00:53:55;;;;;;;2.33;1.00;;;;;;;11.01;100.00;100410.09;2080601;28;20848;-63
2023/04/02 00:55:09;;;;;;;2.20;1.03;;;;;;;10.98;100.00;100403.44;2083017;28;20431;-64
2023/04/02 00:56:26;;;;;;;2.90;1.20;;;;;;;10.21;100.00;100297.56;2080176;28;20415;-64
2023/04/02 00:57:27;;;;;;;2.07;0.87;;;;;;;10.91;100.00;100400.84;2080162;28;20999;-63
2023/04/02 00:58:35;;;;;;;1.60;1.00;;;;;;;10.93;100.00;100406.72;2080198;28;20846;-63
2023/04/02 00:59:47;;;;;;;1.77;1.07;;;;;;;10.95;100.00;100401.50;2080679;28;20176;-63
2023/04/02 01:00:49;;;;;;;1.50;0.83;;;;;;;10.95;100.00;100411.81;2080304;28;20542;-64
2023/04/02 01:02:21;;;;;;;3.53;1.07;;;;;;;10.66;100.00;100361.19;2080598;28;20506;-63
2023/04/02 01:03:22;;;;;;;1.83;0.90;;;;;;;11.02;100.00;100411.63;2080484;28;20470;-64
2023/04/02 01:04:30;;;;;;;2.97;0.90;;;;;;;11.02;100.00;100403.31;2084190;28;20450;-63
2023/04/02 01:05:33;;;;;;;2.67;1.17;;;;;;;10.31;100.00;100307.53;2084479;28;20424;-63
2023/04/02 01:06:37;;;;;;;1.30;0.80;;;;;;;10.96;100.00;100407.84;2077327;28;20506;-63
2023/04/02 01:08:15;;;;;;;2.73;1.03;;;;;;;10.96;100.00;100403.06;2075444;28;20991;-63
2023/04/02 01:09:27;;;;;;;1.93;1.10;;;;;;;10.96;100.00;100405.84;2082167;28;20438;-64
2023/04/02 01:10:40;;;;;;;1.63;0.90;;;;;;;10.97;100.00;100407.38;2081899;28;20439;-63
2023/04/02 01:11:40;;;;;;;1.93;1.00;;;;;;;10.96;100.00;100405.09;2081956;28;20423;-63
2023/04/02 01:12:52;;;;;;;2.23;1.00;;;;;;;10.93;100.00;100403.97;2087742;28;20462;-63
2023/04/02 01:14:21;;;;;;;3.10;0.97;;;;;;;10.97;100.00;100406.63;2083756;28;20547;-64
2023/04/02 01:15:30;;;;;;;3.00;1.20;;;;;;;10.55;100.00;100341.31;2072222;28;20840;-63
2023/04/02 01:16:30;;;;;;;2.50;1.13;;;;;;;10.92;100.00;100402.38;2073431;28;20409;-64
2023/04/02 01:17:53;;;;;;;2.63;0.90;;;;;;;10.90;100.00;100402.06;2081567;28;20451;-63
2023/04/02 01:18:57;;;;;;;1.63;1.00;;;;;;;10.93;100.00;100409.50;2081402;28;20168;-63
2023/04/02 01:20:30;;;;;;;1.97;1.07;;;;;;;10.04;100.00;100276.66;2082005;28;20442;-63
2023/04/02 01:21:57;;;;;;;1.47;0.80;;;;;;;10.93;100.00;100409.50;2076935;28;20578;-63
2023/04/02 01:23:07;;;;;;;4.00;1.03;;;;;;;10.91;100.00;100406.38;2079132;28;20952;-63
2023/04/02 01:24:14;;;;;;;2.03;1.00;;;;;;;10.84;100.00;100417.69;2081674;28;20482;-63
2023/04/02 01:25:22;;;;;;;2.17;0.90;;;;;;;10.84;100.00;100414.13;2081159;28;20790;-63
2023/04/02 01:26:33;;;;;;;1.60;0.90;;;;;;;10.78;100.00;100407.56;2081780;28;20528;-63
2023/04/02 01:27:55;;;;;;;1.90;1.00;;;;;;;10.86;100.00;100418.00;2075886;28;20460;-63
2023/04/02 01:29:12;;;;;;;1.20;0.80;;;;;;;10.83;100.00;100410.59;2081069;28;20807;-63
2023/04/02 01:30:14;;;;;;;1.77;1.10;;;;;;;10.85;100.00;100415.66;2081985;28;20456;-63
2023/04/02 01:31:16;;;;;;;2.40;1.10;;;;;;;10.83;100.00;100412.56;2081863;28;20823;-63
2023/04/02 01:32:20;;;;;;;2.17;1.03;;;;;;;10.85;100.00;100416.47;2081813;28;20426;-63
2023/04/02 01:33:23;;;;;;;1.73;0.90;;;;;;;10.87;100.00;100419.56;2081079;28;20509;-63
2023/04/02 01:34:26;;;;;;;1.90;1.03;;;;;;;10.67;100.00;100394.00;2075834;28;21225;-63
2023/04/02 01:35:31;;;;;;;2.23;0.97;;;;;;;10.85;100.00;100422.00;2077410;28;20443;-63
2023/04/02 01:36:59;;;;;;;3.07;1.10;;;;;;;10.87;100.00;100425.09;2077562;28;20482;-63
2023/04/02 01:38:18;;;;;;;3.07;1.00;;;;;;;10.79;100.00;100423.75;2079545;28;20486;-63
2023/04/02 01:39:38;;;;;;;4.97;1.03;;;;;;;10.79;100.00;100422.97;2081698;28;20428;-63
2023/04/02 01:41:11;;;;;;;2.00;1.07;;;;;;;10.80;100.00;100430.06;2081678;28;20405;-63
2023/04/02 01:42:17;;;;;;;2.33;1.00;;;;;;;10.82;100.00;100430.41;2076072;28;20466;-64
2023/04/02 01:43:31;;;;;;;1.40;1.00;;;;;;;10.85;100.00;100441.41;2078998;28;20467;-63
2023/04/02 01:44:40;;;;;;;3.70;1.10;;;;;;;10.35;100.00;100365.63;2080812;28;20554;-63
2023/04/02 01:45:41;;;;;;;2.00;0.90;;;;;;;10.84;100.00;100437.09;2083107;28;20429;-63
2023/04/02 01:46:43;;;;;;;2.63;1.03;;;;;;;10.44;100.00;100369.31;2081407;28;20443;-63
2023/04/02 01:47:44;;;;;;;2.10;1.30;;;;;;;10.77;100.00;100419.88;2081064;28;20701;-63
2023/04/02 01:48:45;;;;;;;3.23;1.10;;;;;;;10.84;100.00;100439.84;2081401;28;20502;-63
2023/04/02 01:49:46;;;;;;;1.80;1.10;;;;;;;10.84;100.00;100434.31;2081841;28;20213;-63
2023/04/02 01:50:50;;;;;;;2.23;1.17;;;;;;;10.85;100.00;100435.88;2081522;28;20450;-63
2023/04/02 01:51:55;;;;;;;5.50;1.40;;;;;;;10.89;100.00;100442.09;2075218;28;20438;-63
2023/04/02 01:52:59;;;;;;;2.40;1.20;;;;;;;10.61;100.00;100395.00;2079488;28;20449;-63
2023/04/02 01:54:03;;;;;;;4.17;1.17;;;;;;;10.96;100.00;100439.09;2081661;28;20420;-63
2023/04/02 01:55:05;;;;;;;2.30;1.30;;;;;;;10.94;100.00;100447.09;2081921;28;20487;-63
2023/04/02 01:56:06;;;;;;;2.30;1.00;;;;;;;10.97;100.00;100443.44;2081111;28;20876;-63
2023/04/02 01:57:07;;;;;;;1.50;1.10;;;;;;;10.96;100.00;100447.44;2081232;28;20600;-63
2023/04/02 01:58:10;;;;;;;1.80;1.10;;;;;;;10.96;100.00;100443.91;2081243;28;20177;-63
2023/04/02 01:59:11;;;;;;;2.53;1.33;;;;;;;10.40;100.00;100365.09;2081605;28;20804;-63
2023/04/02 02:00:14;;;;;;;1.93;1.07;;;;;;;10.96;100.00;100446.66;2081895;28;20523;-63
2023/04/02 02:01:20;;;;;;;2.70;1.20;;;;;;;10.96;100.00;100452.97;2073371;28;20566;-63
2023/04/02 02:02:21;;;;;;;1.93;1.10;;;;;;;10.95;100.00;100451.41;2081206;28;20424;-63
2023/04/02 02:03:22;;;;;;;1.83;1.20;;;;;;;10.94;100.00;100441.56;2081683;28;20451;-63
2023/04/02 02:04:22;;;;;;;2.57;1.20;;;;;;;10.94;100.00;100454.63;2081461;28;20188;-63
2023/04/02 02:05:23;;;;;;;2.47;1.07;;;;;;;10.96;100.00;100452.97;2080978;28;20443;-63
2023/04/02 02:06:24;;;;;;;3.83;1.20;;;;;;;10.98;100.00;100458.88;2081618;28;20682;-63
2023/04/02 02:07:24;;;;;;;1.80;1.03;;;;;;;11.00;100.00;100456.44;2080924;28;20215;-63
2023/04/02 02:08:43;;;;;;;1.83;1.13;;;;;;;10.54;100.00;100395.16;2081291;28;20188;-63
2023/04/02 02:09:44;;;;;;;2.87;1.00;;;;;;;10.97;100.00;100457.28;2081629;28;20195;-63
2023/04/02 02:10:45;;;;;;;2.57;1.20;;;;;;;10.98;100.00;100456.09;2081500;28;20481;-63
2023/04/02 02:11:45;;;;;;;3.73;1.10;;;;;;;10.97;100.00;100456.53;2081310;28;20208;-63
2023/04/02 02:12:48;;;;;;;3.70;1.30;;;;;;;10.47;100.00;100382.31;2081419;28;20177;-63
2023/04/02 02:14:04;;;;;;;2.23;1.00;;;;;;;10.97;100.00;100459.31;2081605;28;20239;-63
2023/04/02 02:15:15;;;;;;;3.23;1.27;;;;;;;10.90;100.00;100457.50;2072912;28;20415;-63
2023/04/02 02:16:19;;;;;;;3.33;1.27;;;;;;;10.76;100.00;100438.47;2081459;28;20415;-63
2023/04/02 02:17:27;;;;;;;3.13;1.10;;;;;;;10.33;100.00;100368.03;2081102;28;20447;-63
2023/04/02 02:18:28;;;;;;;3.87;1.40;;;;;;;10.89;100.00;100447.63;2080754;28;20515;-63
2023/04/02 02:19:41;;;;;;;3.00;1.20;;;;;;;10.29;100.00;100359.03;2080951;28;20960;-63
2023/04/02 02:20:42;;;;;;;1.53;1.00;;;;;;;10.91;100.00;100447.97;2081512;28;20431;-63
2023/04/02 02:21:49;;;;;;;2.83;1.20;;;;;;;10.90;100.00;100456.72;2076262;28;20444;-63
2023/04/02 02:22:50;;;;;;;2.17;1.10;;;;;;;10.87;100.00;100455.59;2081118;28;20184;-63
2023/04/02 02:23:51;;;;;;;2.13;1.00;;;;;;;10.30;100.00;100366.91;2081550;28;20932;-63
2023/04/02 02:24:53;;;;;;;1.97;0.90;;;;;;;10.83;100.00;100456.91;2081236;28;20806;-63
2023/04/02 02:25:55;;;;;;;2.60;1.23;;;;;;;10.69;100.00;100430.38;2080755;28;20662;-63
2023/04/02 02:27:25;;;;;;;3.03;1.33;;;;;;;10.78;100.00;100451.91;2081604;28;20423;-63
2023/04/02 02:28:30;;;;;;;2.40;1.13;;;;;;;10.77;100.00;100447.59;2084362;28;20831;-63
2023/04/02 02:29:36;;;;;;;1.60;1.10;;;;;;;10.74;100.00;100451.22;2081563;28;20415;-63
2023/04/02 02:30:38;;;;;;;2.33;1.10;;;;;;;10.67;100.00;100457.72;2081202;28;20461;-63
2023/04/02 02:31:41;;;;;;;2.27;1.17;;;;;;;10.70;100.00;100445.78;2081430;28;20439;-63
2023/04/02 02:33:21;;;;;;;1.93;1.10;;;;;;;10.72;100.00;100451.66;2081077;28;20431;-63
2023/04/02 02:34:29;;;;;;;4.13;1.10;;;;;;;10.73;100.00;100450.47;2075058;28;20424;-63
2023/04/02 02:35:39;;;;;;;1.90;0.97;;;;;;;10.42;100.00;100407.75;2086117;28;20461;-63
2023/04/02 02:36:51;;;;;;;1.97;1.00;;;;;;;10.75;100.00;100452.78;2087192;28;20951;-63
2023/04/02 02:38:01;;;;;;;1.43;0.90;;;;;;;10.74;100.00;100452.00;2081204;28;20451;-63
2023/04/02 02:39:22;;;;;;;3.40;1.10;;;;;;;10.63;100.00;100445.19;2081100;28;20490;-63
2023/04/02 02:40:30;;;;;;;2.47;1.20;;;;;;;10.68;100.00;100458.53;2073297;28;20894;-63
2023/04/02 02:42:04;;;;;;;1.83;1.00;;;;;;;10.65;100.00;100462.19;2081009;28;20473;-63
2023/04/02 02:43:10;;;;;;;2.53;1.00;;;;;;;10.56;100.00;100456.47;2080050;28;20430;-63
2023/04/02 02:44:24;;;;;;;2.83;1.10;;;;;;;10.54;100.00;100456.13;2079345;28;20459;-63
2023/04/02 02:45:31;;;;;;;3.27;1.33;;;;;;;10.52;100.00;100455.78;2080333;28;20799;-63
2023/04/02 02:46:34;;;;;;;1.60;1.00;;;;;;;10.50;100.00;100455.44;2080755;28;20411;-63
2023/04/02 02:47:38;;;;;;;1.90;1.00;;;;;;;10.35;100.00;100443.19;2079634;28;20459;-63
2023/04/02 02:48:40;;;;;;;2.27;1.20;;;;;;;10.44;100.00;100460.72;2073165;28;20511;-63
2023/04/02 02:49:46;;;;;;;2.57;1.00;;;;;;;10.43;100.00;100461.16;2081454;28;20446;-63
2023/04/02 02:50:47;;;;;;;2.07;1.10;;;;;;;10.40;100.00;100454.50;2073165;28;20429;-63
2023/04/02 02:51:56;;;;;;;2.30;1.00;;;;;;;10.38;100.00;100464.44;2080629;28;20467;-63
2023/04/02 02:53:02;;;;;;;2.87;1.20;;;;;;;10.38;100.00;100461.69;2081364;28;20200;-63
2023/04/02 02:54:04;;;;;;;2.00;1.10;;;;;;;9.86;100.00;100383.47;2081236;28;21003;-63
2023/04/02 02:55:07;;;;;;;1.53;0.90;;;;;;;10.37;100.00;100457.34;2086503;28;20429;-63
2023/04/02 02:56:08;;;;;;;1.97;1.00;;;;;;;10.37;100.00;100460.91;2088974;28;21017;-63
2023/04/02 02:57:12;;;;;;;3.23;1.00;;;;;;;10.36;100.00;100458.59;2084828;28;20862;-63
2023/04/02 02:58:30;;;;;;;2.30;1.00;;;;;;;9.84;100.00;100383.91;2080841;28;20200;-63
2023/04/02 02:59:31;;;;;;;1.90;1.03;;;;;;;10.30;100.00;100463.84;2081314;28;20426;-63
2023/04/02 03:00:34;;;;;;;1.70;0.80;;;;;;;10.18;100.00;100445.19;2077210;28;20953;-63
2023/04/02 03:01:35;;;;;;;1.73;0.80;;;;;;;10.31;100.00;100456.34;2075982;28;20239;-63
2023/04/02 03:02:39;;;;;;;1.80;0.90;;;;;;;10.00;100.00;100410.81;2080474;28;20419;-63
2023/04/02 03:03:40;;;;;;;1.70;0.97;;;;;;;10.32;100.00;100461.44;2080696;28;20424;-63
2023/04/02 03:04:49;;;;;;;1.80;1.03;;;;;;;10.27;100.00;100441.78;2081162;28;20422;-63
2023/04/02 03:05:56;;;;;;;1.97;0.97;;;;;;;10.32;100.00;100455.13;2072730;28;20260;-63
2023/04/02 03:06:57;;;;;;;1.70;1.00;;;;;;;9.60;100.00;100357.63;2088879;28;20515;-63
2023/04/02 03:08:01;;;;;;;2.63;0.90;;;;;;;9.51;100.00;100343.63;2080118;28;20889;-63
2023/04/02 03:09:21;;;;;;;6.27;1.20;;;;;;;10.28;100.00;100455.22;2072958;28;20930;-63
2023/04/02 03:10:47;;;;;;;1.67;0.90;;;;;;;10.34;100.00;100458.22;2072989;28;20515;-63
2023/04/02 03:12:20;;;;;;;2.23;1.00;;;;;;;10.33;100.00;100462.22;2080981;28;20432;-63
2023/04/02 03:13:31;;;;;;;1.37;0.80;;;;;;;10.18;100.00;100436.06;2066742;28;20441;-63
2023/04/02 03:14:45;;;;;;;1.70;0.90;;;;;;;10.31;100.00;100451.56;2069980;28;20948;-63
2023/04/02 03:16:23;;;;;;;1.47;0.83;;;;;;;10.34;100.00;100470.09;2080549;28;20890;-63
2023/04/02 03:17:34;;;;;;;1.87;0.90;;;;;;;9.74;100.00;100384.94;2055914;28;20438;-63
2023/04/02 03:18:56;;;;;;;1.13;0.70;;;;;;;10.30;100.00;100463.84;2079956;28;20940;-63
2023/04/02 03:20:16;;;;;;;2.97;1.10;;;;;;;10.31;100.00;100464.63;2081152;28;20958;-63
2023/04/02 03:21:41;;;;;;;2.67;0.90;;;;;;;10.30;100.00;100466.63;2080911;28;20855;-63
2023/04/02 03:22:51;;;;;;;1.47;1.00;;;;;;;10.31;100.00;100470.94;2079135;28;20431;-63
2023/04/02 03:24:03;;;;;;;1.33;0.77;;;;;;;10.34;100.00;100463.75;2081108;28;20453;-63
2023/04/02 03:25:26;;;;;;;2.50;0.90;;;;;;;9.65;100.00;100348.81;2080642;28;20450;-63
2023/04/02 03:26:36;;;;;;;2.30;0.90;;;;;;;10.35;100.00;100462.56;2080949;28;20491;-63
2023/04/02 03:27:42;;;;;;;1.40;0.90;;;;;;;10.39;100.00;100454.91;2072526;28;20521;-63
2023/04/02 03:28:49;;;;;;;1.33;0.90;;;;;;;10.37;100.00;100447.06;2072784;28;20881;-63
2023/04/02 03:30:30;;;;;;;2.67;1.00;;;;;;;10.40;100.00;100457.25;2072713;28;20401;-63
2023/04/02 03:31:36;;;;;;;2.03;0.80;;;;;;;9.78;100.00;100359.97;2074915;28;20664;-63
2023/04/02 03:32:40;;;;;;;2.03;1.00;;;;;;;10.41;100.00;100458.06;2080755;28;20523;-63
2023/04/02 03:33:54;;;;;;;1.70;1.00;;;;;;;10.42;100.00;100465.94;2080943;28;20524;-64
2023/04/02 03:34:59;;;;;;;1.50;0.90;;;;;;;10.44;100.00;100455.19;2080716;28;20869;-63
2023/04/02 03:36:18;;;;;;;1.10;0.80;;;;;;;10.47;100.00;100456.31;2080775;28;20795;-63
2023/04/02 03:37:53;;;;;;;2.57;0.80;;;;;;;10.47;100.00;100454.31;2076040;28;20456;-63
2023/04/02 03:39:01;;;;;;;3.40;1.17;;;;;;;10.50;100.00;100450.66;2076620;28;20518;-63
2023/04/02 03:40:13;;;;;;;2.13;0.90;;;;;;;10.45;100.00;100442.88;2082174;28;21035;-63
2023/04/02 03:41:16;;;;;;;1.27;0.80;;;;;;;10.49;100.00;100451.88;2080792;28;20828;-63
2023/04/02 03:42:36;;;;;;;3.53;1.00;;;;;;;10.50;100.00;100453.44;2080902;28;20933;-63
2023/04/02 03:43:41;;;;;;;2.47;0.90;;;;;;;10.09;100.00;100381.31;2072747;28;20487;-63
2023/04/02 03:45:12;;;;;;;1.73;1.10;;;;;;;10.53;100.00;100449.03;2080571;28;20464;-63
2023/04/02 03:46:25;;;;;;;1.63;0.83;;;;;;;10.51;100.00;100454.22;2074143;28;20861;-63
2023/04/02 03:47:37;;;;;;;1.90;0.70;;;;;;;10.52;100.00;100453.00;2080225;28;20423;-63
2023/04/02 03:48:45;;;;;;;2.30;0.90;;;;;;;10.24;100.00;100403.91;2080562;28;20924;-63
2023/04/02 03:49:53;;;;;;;1.57;0.80;;;;;;;10.46;100.00;100452.75;2080939;28;20415;-63
2023/04/02 03:51:02;;;;;;;1.40;0.83;;;;;;;10.41;100.00;100449.75;2088112;28;20888;-63
2023/04/02 03:52:24;;;;;;;3.23;1.00;;;;;;;10.51;100.00;100448.69;2087225;28;20404;-63
2023/04/02 03:53:28;;;;;;;2.63;0.93;;;;;;;10.38;100.00;100445.06;2080696;28;20876;-63
2023/04/02 03:54:30;;;;;;;1.23;0.80;;;;;;;10.54;100.00;100456.91;2081626;28;20456;-63
2023/04/02 03:55:36;;;;;;;1.93;0.80;;;;;;;10.55;100.00;100454.94;2086552;28;20867;-63
2023/04/02 03:56:40;;;;;;;1.90;1.00;;;;;;;10.50;100.00;100453.44;2079762;28;20459;-63
2023/04/02 03:57:52;;;;;;;1.30;0.80;;;;;;;10.51;100.00;100449.44;2079843;28;20897;-63
2023/04/02 03:59:05;;;;;;;1.93;0.97;;;;;;;10.55;100.00;100452.16;2080883;28;20419;-63
2023/04/02 04:00:19;;;;;;;1.50;0.73;;;;;;;10.54;100.00;100456.13;2088297;28;20444;-63
2023/04/02 04:01:27;;;;;;;2.20;0.80;;;;;;;10.55;100.00;100447.38;2086874;28;20447;-63
2023/04/02 04:02:38;;;;;;;2.53;0.90;;;;;;;9.89;100.00;100352.19;2080571;28;20403;-63
2023/04/02 04:03:44;;;;;;;2.07;0.80;;;;;;;10.55;100.00;100450.16;2081143;28;20418;-63
2023/04/02 04:04:47;;;;;;;2.23;0.90;;;;;;;10.59;100.00;100450.84;2080418;28;20453;-63
2023/04/02 04:05:51;;;;;;;1.30;0.80;;;;;;;10.61;100.00;100455.94;2078818;28;20430;-63
2023/04/02 04:06:55;;;;;;;1.27;0.90;;;;;;;10.33;100.00;100417.88;2073051;28;20420;-63
2023/04/02 04:08:12;;;;;;;1.93;1.00;;;;;;;10.01;100.00;100374.41;2080331;28;20936;-63
2023/04/02 04:09:39;;;;;;;2.27;0.80;;;;;;;10.35;100.00;100415.47;2080515;28;20775;-63
2023/04/02 04:10:42;;;;;;;1.57;1.00;;;;;;;10.66;100.00;100458.94;2080326;28;21015;-63
2023/04/02 04:11:50;;;;;;;1.63;0.80;;;;;;;10.67;100.00;100460.50;2080693;28;20788;-63
2023/04/02 04:12:54;;;;;;;2.33;1.00;;;;;;;10.69;100.00;100457.28;2080721;28;20954;-63
2023/04/02 04:14:00;;;;;;;1.87;0.90;;;;;;;10.64;100.00;100463.38;2080684;28;20872;-63
2023/04/02 04:15:19;;;;;;;1.83;0.90;;;;;;;10.53;100.00;100460.91;2079703;28;20431;-63
2023/04/02 04:16:27;;;;;;;1.47;0.83;;;;;;;10.58;100.00;100468.69;2076784;28;20505;-63
2023/04/02 04:18:03;;;;;;;1.67;0.93;;;;;;;10.58;100.00;100465.91;2078086;28;20456;-63
2023/04/02 04:19:13;;;;;;;2.90;1.00;;;;;;;10.54;100.00;100458.88;2072858;28;20448;-63
2023/04/02 04:20:25;;;;;;;1.77;0.73;;;;;;;10.62;100.00;100472.16;2079806;28;20451;-63
2023/04/02 04:21:35;;;;;;;1.43;0.97;;;;;;;10.18;100.00;100403.63;2080735;28;20439;-63
2023/04/02 04:22:36;;;;;;;1.30;0.90;;;;;;;10.70;100.00;100472.69;2080154;28;20765;-63
2023/04/02 04:23:39;;;;;;;1.30;0.80;;;;;;;10.16;100.00;100383.94;2080416;28;20451;-63
2023/04/02 04:24:44;;;;;;;1.87;0.90;;;;;;;10.79;100.00;100478.41;2080456;28;20286;-63
2023/04/02 04:25:48;;;;;;;4.00;1.10;;;;;;;10.84;100.00;100483.41;2080230;28;20940;-63
2023/04/02 04:26:56;;;;;;;1.83;0.90;;;;;;;10.58;100.00;100468.69;2080404;28;20435;-63
2023/04/02 04:28:15;;;;;;;1.10;0.80;;;;;;;10.90;100.00;100487.22;2079900;28;20564;-63
2023/04/02 04:29:24;;;;;;;2.70;1.10;;;;;;;10.91;100.00;100489.53;2080764;28;20455;-63
2023/04/02 04:30:40;;;;;;;1.90;0.97;;;;;;;10.33;100.00;100404.84;2080194;28;20451;-63
2023/04/02 04:31:53;;;;;;;2.13;1.00;;;;;;;10.90;100.00;100489.97;2080871;28;20529;-63
2023/04/02 04:33:02;;;;;;;1.83;0.80;;;;;;;10.91;100.00;100486.78;2080491;28;20454;-63
2023/04/02 04:34:12;;;;;;;1.20;0.80;;;;;;;10.92;100.00;100487.56;2080621;28;20998;-63
2023/04/02 04:35:32;;;;;;;2.80;1.10;;;;;;;10.95;100.00;100506.09;2080301;28;20447;-63
2023/04/02 04:36:40;;;;;;;1.30;0.90;;;;;;;10.93;100.00;100487.13;2072304;28;20427;-63
2023/04/02 04:37:48;;;;;;;2.17;0.90;;;;;;;10.94;100.00;100487.91;2072244;28;20412;-63
2023/04/02 04:38:54;;;;;;;2.90;0.90;;;;;;;10.15;100.00;100382.34;2072441;28;21007;-63
2023/04/02 04:40:02;;;;;;;1.77;1.00;;;;;;;10.86;100.00;100484.53;2077406;28;20408;-63
2023/04/02 04:41:17;;;;;;;2.50;0.90;;;;;;;10.87;100.00;100485.31;2072641;28;20389;-63
2023/04/02 04:42:26;;;;;;;2.43;1.10;;;;;;;10.79;100.00;100481.97;2073230;28;20453;-63
2023/04/02 04:43:45;;;;;;;2.07;0.90;;;;;;;10.86;100.00;100490.09;2082315;28;20612;-63
2023/04/02 04:44:50;;;;;;;1.43;0.83;;;;;;;10.17;100.00;100404.84;2074735;28;20458;-63
2023/04/02 04:45:59;;;;;;;3.63;1.17;;;;;;;10.77;100.00;100489.16;2081831;28;20545;-63
2023/04/02 04:47:10;;;;;;;1.90;1.00;;;;;;;10.78;100.00;100490.72;2082161;28;20403;-63
2023/04/02 04:48:26;;;;;;;2.17;1.00;;;;;;;10.77;100.00;100489.91;2082009;28;20449;-63
2023/04/02 04:49:40;;;;;;;2.17;1.00;;;;;;;10.71;100.00;100494.44;2089671;28;20531;-63
2023/04/02 04:50:57;;;;;;;1.53;0.80;;;;;;;10.67;100.00;100490.22;2087719;28;20409;-63
2023/04/02 04:52:11;;;;;;;1.53;0.80;;;;;;;10.66;100.00;100496.97;2082151;28;20435;-63
2023/04/02 04:53:16;;;;;;;2.60;1.00;;;;;;;10.70;100.00;100486.56;2081957;28;20485;-63
2023/04/02 04:54:18;;;;;;;1.73;0.80;;;;;;;10.68;100.00;100492.56;2082150;28;20873;-63
2023/04/02 04:55:48;;;;;;;1.97;0.93;;;;;;;10.68;100.00;100491.78;2086550;28;20467;-63
2023/04/02 04:56:59;;;;;;;1.50;0.83;;;;;;;10.63;100.00;100478.44;2079439;28;20440;-63
2023/04/02 04:58:20;;;;;;;2.07;1.07;;;;;;;10.41;100.00;100461.59;2081722;28;20508;-63
2023/04/02 04:59:28;;;;;;;2.00;1.00;;;;;;;10.77;100.00;100508.56;2074397;28;20443;-63
2023/04/02 05:00:41;;;;;;;1.40;0.80;;;;;;;10.81;100.00;100501.69;2080694;28;20436;-63
2023/04/02 05:02:06;;;;;;;1.87;1.00;;;;;;;10.84;100.00;100502.81;2081822;28;20544;-63
2023/04/02 05:03:36;;;;;;;2.27;0.90;;;;;;;10.85;100.00;100507.94;2074671;28;20473;-63
2023/04/02 05:04:40;;;;;;;3.27;1.00;;;;;;;10.90;100.00;100512.16;2081957;28;20453;-63
2023/04/02 05:05:41;;;;;;;2.87;1.10;;;;;;;10.87;100.00;100490.88;2081589;28;20450;-63
2023/04/02 05:06:51;;;;;;;2.53;0.90;;;;;;;10.91;100.00;100506.19;2081867;28;20509;-63
2023/04/02 05:07:57;;;;;;;2.50;1.10;;;;;;;10.96;100.00;100511.19;2081752;28;20200;-63
2023/04/02 05:09:04;;;;;;;1.27;0.87;;;;;;;10.95;100.00;100508.84;2081842;28;20521;-63
2023/04/02 05:10:23;;;;;;;1.43;0.93;;;;;;;11.02;100.00;100501.13;2081756;28;20506;-63
2023/04/02 05:11:33;;;;;;;2.00;1.17;;;;;;;10.97;100.00;100495.34;2081837;28;20520;-63
2023/04/02 05:12:40;;;;;;;1.67;0.93;;;;;;;11.01;100.00;100504.34;2081897;28;20439;-64
2023/04/02 05:13:56;;;;;;;1.10;0.67;;;;;;;10.96;100.00;100479.94;2081937;28;20460;-63
2023/04/02 05:15:03;;;;;;;1.60;1.00;;;;;;;11.08;100.00;100507.72;2081697;28;20850;-63
2023/04/02 05:16:25;;;;;;;3.13;1.03;;;;;;;11.05;100.00;100505.81;2081628;28;20440;-63
2023/04/02 05:17:31;;;;;;;1.50;0.93;;;;;;;10.99;100.00;100504.00;2081542;28;20449;-63
2023/04/02 05:18:39;;;;;;;1.30;0.70;;;;;;;10.68;100.00;100452.97;2081570;28;20525;-63
2023/04/02 05:19:50;;;;;;;2.10;0.90;;;;;;;11.08;100.00;100509.69;2082286;28;20894;-63